Time;durP1;ratioP1;P1;durP2;ratioP2;P2;SDS_P1;SDS_P2;PMS_P1;PMS_P2;Temp;Humidity;BMP_temperature;BMP_pressure;BME280_temperature;BME280_humidity;BME280_pressure;Samples;Min_cycle;Max_cycle;Signal;HPM_P1;HPM_P2
2024/02/27 00:00:14;;;;;;;22.17;20.40;;;5.50;99.90;;;;;;4961333;28;20065;-82
2024/02/27 00:02:41;;;;;;;21.20;19.50;;;5.50;99.90;;;;;;4975195;28;20094;-81
2024/02/27 00:05:08;;;;;;;21.95;20.25;;;5.50;99.90;;;;;;4965155;28;20072;-83
2024/02/27 00:07:36;;;;;;;22.67;20.88;;;5.50;99.90;;;;;;4964952;28;20086;-83
2024/02/27 00:10:04;;;;;;;24.35;22.40;;;5.50;99.90;;;;;;4979088;28;20057;-83
2024/02/27 00:12:31;;;;;;;24.38;22.38;;;5.40;99.90;;;;;;4969619;28;20047;-83
2024/02/27 00:14:58;;;;;;;24.30;22.40;;;5.40;99.90;;;;;;4966724;28;20050;-82
2024/02/27 00:17:25;;;;;;;24.90;22.77;;;5.40;99.90;;;;;;4978786;28;20225;-83
2024/02/27 00:19:52;;;;;;;24.70;22.70;;;5.40;99.90;;;;;;4981477;28;20086;-84
2024/02/27 00:22:20;;;;;;;26.73;24.40;;;5.50;99.90;;;;;;4945199;28;20041;-82
2024/02/27 00:24:47;;;;;;;25.02;22.88;;;5.40;99.90;;;;;;4966073;28;20065;-82
2024/02/27 00:27:13;;;;;;;26.23;23.92;;;5.40;99.90;;;;;;4986945;28;20078;-82
2024/02/27 00:29:40;;;;;;;25.45;23.08;;;5.40;99.90;;;;;;4960470;28;20110;-83
2024/02/27 00:32:07;;;;;;;27.10;24.50;;;5.40;99.90;;;;;;4977844;28;20047;-82
2024/02/27 00:34:35;;;;;;;27.95;25.35;;;5.40;99.90;;;;;;4979340;28;20053;-83
2024/02/27 00:37:02;;;;;;;28.83;26.17;;;5.40;99.90;;;;;;4963086;28;20070;-81
2024/02/27 00:39:29;;;;;;;27.25;24.65;;;5.40;99.90;;;;;;4960606;28;20352;-81
2024/02/27 00:41:58;;;;;;;29.40;26.67;;;5.40;99.90;;;;;;4974549;28;20034;-82
2024/02/27 00:44:25;;;;;;;29.50;26.75;;;5.40;99.90;;;;;;4964416;28;20047;-82
2024/02/27 00:46:52;;;;;;;29.30;26.60;;;5.40;99.90;;;;;;4961457;28;20055;-80
2024/02/27 00:49:19;;;;;;;28.50;25.75;;;5.40;99.90;;;;;;4973347;28;20043;-84
2024/02/27 00:51:46;;;;;;;29.52;26.50;;;5.40;99.90;;;;;;4944796;28;20118;-83
2024/02/27 00:54:13;;;;;;;29.17;26.30;;;5.40;99.90;;;;;;4956640;28;20066;-83
2024/02/27 00:56:40;;;;;;;30.00;27.15;;;5.40;99.90;;;;;;4970733;28;20046;-83
2024/02/27 00:59:07;;;;;;;29.70;26.95;;;5.40;99.90;;;;;;4980520;28;20046;-83
2024/02/27 01:01:34;;;;;;;31.17;27.95;;;5.50;99.90;;;;;;4976824;28;20074;-82
2024/02/27 01:04:01;;;;;;;31.02;27.95;;;5.30;99.90;;;;;;4960967;28;20059;-83
2024/02/27 01:06:28;;;;;;;32.00;28.85;;;5.40;99.90;;;;;;4981713;28;20702;-82
2024/02/27 01:08:55;;;;;;;31.40;28.20;;;5.40;99.90;;;;;;4968489;28;20058;-83
2024/02/27 01:11:22;;;;;;;30.70;27.77;;;5.40;99.90;;;;;;4977179;28;20113;-81
2024/02/27 01:13:49;;;;;;;30.80;27.85;;;5.40;99.90;;;;;;4977196;28;20096;-82
2024/02/27 01:16:16;;;;;;;31.85;28.48;;;5.40;99.90;;;;;;4973071;28;20057;-83
2024/02/27 01:18:42;;;;;;;31.48;27.75;;;5.40;99.90;;;;;;4965576;28;20074;-84
2024/02/27 01:21:09;;;;;;;32.58;29.27;;;5.30;99.90;;;;;;4965063;28;20195;-82
2024/02/27 01:23:36;;;;;;;34.65;28.35;;;5.30;99.90;;;;;;4979224;28;20168;-81
2024/02/27 01:26:03;;;;;;;32.15;28.95;;;5.30;99.90;;;;;;4972690;28;20721;-82
2024/02/27 01:28:30;;;;;;;34.05;30.55;;;5.20;99.90;;;;;;4946101;28;20164;-82
2024/02/27 01:30:57;;;;;;;34.13;30.42;;;5.20;99.90;;;;;;4965463;28;20050;-82
2024/02/27 01:33:24;;;;;;;34.72;29.52;;;5.20;99.90;;;;;;4978667;28;20268;-83
2024/02/27 01:35:52;;;;;;;34.78;30.75;;;5.30;99.90;;;;;;4989099;28;20108;-82
2024/02/27 01:38:19;;;;;;;39.20;31.52;;;5.20;99.90;;;;;;4962397;28;20046;-80
2024/02/27 01:40:46;;;;;;;36.65;32.60;;;5.30;99.90;;;;;;4987871;28;20054;-81
2024/02/27 01:43:23;;;;;;;38.72;32.40;;;5.30;99.90;;;;;;4980654;28;20057;-82
2024/02/27 01:46:04;;;;;;;33.05;29.38;;;5.20;99.90;;;;;;4984311;28;20528;-83
2024/02/27 01:48:33;;;;;;;37.17;30.90;;;5.10;99.90;;;;;;4960758;28;20153;-82
2024/02/27 01:51:01;;;;;;;33.13;29.02;;;5.20;99.90;;;;;;4979341;28;20682;-81
2024/02/27 01:53:29;;;;;;;37.65;31.52;;;5.20;99.90;;;;;;4961904;28;20039;-82
2024/02/27 01:55:57;;;;;;;35.95;32.03;;;5.10;99.90;;;;;;4983176;28;20038;-82
2024/02/27 01:58:24;;;;;;;36.67;30.30;;;5.20;99.90;;;;;;4960093;28;20113;-80
2024/02/27 02:00:51;;;;;;;40.10;32.22;;;5.20;99.90;;;;;;4973210;28;20109;-81
2024/02/27 02:03:21;;;;;;;36.50;31.98;;;5.10;99.90;;;;;;4962209;28;20046;-81
2024/02/27 02:05:49;;;;;;;38.60;31.63;;;5.10;99.90;;;;;;4970275;28;20069;-82
2024/02/27 02:08:17;;;;;;;41.15;33.13;;;5.20;99.90;;;;;;4959986;28;20089;-81
2024/02/27 02:10:44;;;;;;;36.40;30.58;;;5.10;99.90;;;;;;4965925;28;20046;-82
2024/02/27 02:13:11;;;;;;;37.78;31.58;;;5.10;99.90;;;;;;4978443;28;20483;-82
2024/02/27 02:15:37;;;;;;;40.28;31.85;;;5.10;99.90;;;;;;4966919;28;20058;-82
2024/02/27 02:18:05;;;;;;;37.15;31.00;;;5.10;99.90;;;;;;4964759;28;20050;-82
2024/02/27 02:20:32;;;;;;;45.17;32.80;;;5.10;99.90;;;;;;4955621;28;20047;-81
2024/02/27 02:22:59;;;;;;;41.58;31.75;;;5.00;99.90;;;;;;4958589;28;20055;-82
2024/02/27 02:25:30;;;;;;;41.05;32.45;;;4.90;99.90;;;;;;4960165;28;21323;-82
2024/02/27 02:27:57;;;;;;;41.00;33.10;;;4.80;99.90;;;;;;4967933;28;20062;-83
2024/02/27 02:30:24;;;;;;;43.20;32.05;;;4.80;99.90;;;;;;4962021;28;20113;-84
2024/02/27 02:32:51;;;;;;;41.67;31.15;;;4.80;99.90;;;;;;4972870;28;20054;-83
2024/02/27 02:35:18;;;;;;;41.20;32.60;;;4.80;99.90;;;;;;4992574;28;20054;-80
2024/02/27 02:37:49;;;;;;;42.33;32.47;;;4.80;99.90;;;;;;4987290;28;21311;-82
2024/02/27 02:40:20;;;;;;;45.22;33.22;;;4.70;99.90;;;;;;4996055;28;20770;-80
2024/02/27 02:42:47;;;;;;;47.90;33.08;;;4.60;99.90;;;;;;4967872;28;20133;-83
2024/02/27 02:45:14;;;;;;;43.95;32.13;;;4.60;99.90;;;;;;4964944;28;20056;-82
2024/02/27 02:47:41;;;;;;;44.88;31.67;;;4.60;99.90;;;;;;4967755;28;20672;-82
2024/02/27 02:50:10;;;;;;;46.92;33.53;;;4.60;99.90;;;;;;4964786;28;20046;-81
2024/02/27 02:52:38;;;;;;;47.60;32.55;;;4.50;99.90;;;;;;4965830;28;20049;-80
2024/02/27 02:55:06;;;;;;;50.78;33.80;;;4.50;99.90;;;;;;4969197;28;20116;-82
2024/02/27 02:57:33;;;;;;;42.83;30.27;;;4.50;99.90;;;;;;4980859;28;20053;-82
2024/02/27 03:00:01;;;;;;;52.03;32.97;;;4.40;99.90;;;;;;4968077;28;20473;-82
2024/02/27 03:02:28;;;;;;;52.45;34.00;;;4.40;99.90;;;;;;4980682;28;20081;-82
2024/02/27 03:04:55;;;;;;;51.78;33.90;;;4.30;99.90;;;;;;4967364;28;20111;-83
2024/02/27 03:07:21;;;;;;;49.70;33.03;;;4.20;99.90;;;;;;4961854;28;20046;-81
2024/02/27 03:09:48;;;;;;;53.95;34.05;;;4.20;99.90;;;;;;4951998;28;20047;-82
2024/02/27 03:12:17;;;;;;;51.20;34.15;;;4.10;99.90;;;;;;4965581;28;20096;-82
2024/02/27 03:14:45;;;;;;;52.15;34.00;;;4.00;99.90;;;;;;4968175;28;20114;-81
2024/02/27 03:17:14;;;;;;;53.53;34.33;;;3.90;99.90;;;;;;4977909;28;20127;-81
2024/02/27 03:19:42;;;;;;;55.67;34.15;;;4.00;99.90;;;;;;4968197;28;20129;-81
2024/02/27 03:22:10;;;;;;;55.28;34.50;;;3.90;99.90;;;;;;4966108;28;20103;-83
2024/02/27 03:24:43;;;;;;;56.20;34.50;;;3.90;99.90;;;;;;4961007;28;20070;-82
2024/02/27 03:27:11;;;;;;;52.22;33.25;;;3.80;99.90;;;;;;4962431;28;20051;-80
2024/02/27 03:29:38;;;;;;;62.83;37.25;;;3.80;99.90;;;;;;4948869;28;20081;-82
2024/02/27 03:32:05;;;;;;;59.97;34.70;;;3.70;99.90;;;;;;4964586;28;20581;-83
2024/02/27 03:34:33;;;;;;;59.70;36.83;;;3.70;99.90;;;;;;4981434;28;20035;-83
2024/02/27 03:37:02;;;;;;;70.30;38.10;;;3.70;99.90;;;;;;4980903;28;20498;-83
2024/02/27 03:39:29;;;;;;;67.50;37.88;;;3.60;99.90;;;;;;4964024;28;20496;-82
2024/02/27 03:41:56;;;;;;;67.85;37.28;;;3.60;99.90;;;;;;4995605;28;20138;-82
2024/02/27 03:44:22;;;;;;;73.22;40.22;;;3.60;99.90;;;;;;4963992;28;20085;-82
2024/02/27 03:46:49;;;;;;;66.60;40.13;;;3.50;99.90;;;;;;4965969;28;20053;-81
2024/02/27 03:49:16;;;;;;;73.78;38.17;;;3.50;99.90;;;;;;4987925;28;20502;-81
2024/02/27 03:51:43;;;;;;;78.15;40.00;;;3.50;99.90;;;;;;4971147;28;20050;-82
2024/02/27 03:54:10;;;;;;;77.78;41.33;;;3.40;99.90;;;;;;4965968;28;20038;-83
2024/02/27 03:56:38;;;;;;;77.18;41.35;;;3.30;99.90;;;;;;4972343;28;20125;-82
2024/02/27 03:59:05;;;;;;;74.82;40.45;;;3.40;99.90;;;;;;4997073;28;20097;-81
2024/02/27 04:01:32;;;;;;;76.72;40.97;;;3.40;99.90;;;;;;4961703;28;21311;-81
2024/02/27 04:03:59;;;;;;;80.25;42.15;;;3.40;99.90;;;;;;4961934;28;20141;-82
2024/02/27 04:06:26;;;;;;;84.53;42.25;;;3.30;99.90;;;;;;4967569;28;20046;-81
2024/02/27 04:08:53;;;;;;;76.70;41.05;;;3.30;99.90;;;;;;4965787;28;20053;-81
2024/02/27 04:11:20;;;;;;;83.18;42.97;;;3.30;99.90;;;;;;4969607;28;20050;-82
2024/02/27 04:13:47;;;;;;;85.15;42.20;;;3.30;99.90;;;;;;4952842;28;20047;-81
2024/02/27 04:16:14;;;;;;;79.78;43.28;;;3.20;99.90;;;;;;4969969;28;20145;-81
2024/02/27 04:18:41;;;;;;;87.60;42.25;;;3.30;99.90;;;;;;4981271;28;20525;-82
2024/02/27 04:21:08;;;;;;;85.50;44.47;;;3.30;99.90;;;;;;4978251;28;20053;-81
2024/02/27 04:23:35;;;;;;;80.13;41.47;;;3.20;99.90;;;;;;4980170;28;20121;-82
2024/02/27 04:26:02;;;;;;;85.63;43.65;;;3.10;99.90;;;;;;4970201;28;20050;-81
2024/02/27 04:28:29;;;;;;;96.78;44.90;;;3.00;99.90;;;;;;4989454;28;20123;-81
2024/02/27 04:30:56;;;;;;;83.50;44.72;;;3.00;99.90;;;;;;4965669;28;20057;-81
2024/02/27 04:33:23;;;;;;;85.63;43.10;;;3.00;99.90;;;;;;4979076;28;20050;-81
2024/02/27 04:35:50;;;;;;;86.55;44.00;;;2.80;99.90;;;;;;4982752;28;20073;-82
2024/02/27 04:38:17;;;;;;;88.07;43.28;;;2.80;99.90;;;;;;4956559;28;20054;-81
2024/02/27 04:40:44;;;;;;;82.57;44.35;;;2.70;99.90;;;;;;4962177;28;20061;-81
2024/02/27 04:43:11;;;;;;;92.22;46.83;;;2.70;99.90;;;;;;5001187;28;20069;-80
2024/02/27 04:45:38;;;;;;;86.93;45.15;;;2.70;99.90;;;;;;4978094;28;20061;-81
2024/02/27 04:48:06;;;;;;;89.13;47.58;;;2.60;99.90;;;;;;4993344;28;20058;-82
2024/02/27 04:50:34;;;;;;;87.43;45.13;;;2.50;99.90;;;;;;4979384;28;20053;-82
2024/02/27 04:53:01;;;;;;;92.97;45.72;;;2.50;99.90;;;;;;4970763;28;20085;-81
2024/02/27 04:55:29;;;;;;;92.03;46.00;;;2.40;99.90;;;;;;4981283;28;20050;-82
2024/02/27 04:57:56;;;;;;;91.90;46.35;;;2.40;99.90;;;;;;4967759;28;20404;-82
2024/02/27 05:00:23;;;;;;;88.82;43.97;;;2.50;99.90;;;;;;4976216;28;20659;-81
2024/02/27 05:02:50;;;;;;;89.10;44.28;;;2.60;99.90;;;;;;4983963;28;20050;-81
2024/02/27 05:05:17;;;;;;;97.07;46.20;;;2.60;99.90;;;;;;4963858;28;20043;-82
2024/02/27 05:07:45;;;;;;;91.97;44.55;;;2.60;99.90;;;;;;4962208;28;20054;-80
2024/02/27 05:10:12;;;;;;;90.78;45.75;;;2.70;99.90;;;;;;4952062;28;20046;-81
2024/02/27 05:12:39;;;;;;;100.85;49.15;;;2.60;99.90;;;;;;4975988;28;20047;-82
2024/02/27 05:15:06;;;;;;;93.55;45.35;;;2.70;99.90;;;;;;4958465;28;20047;-85
2024/02/27 05:17:33;;;;;;;86.25;44.58;;;2.80;99.90;;;;;;4937165;28;20047;-84
2024/02/27 05:20:00;;;;;;;95.65;47.15;;;2.90;99.90;;;;;;4960783;28;20043;-82
2024/02/27 05:22:28;;;;;;;99.40;47.50;;;3.00;99.90;;;;;;4949546;28;20046;-83
2024/02/27 05:24:54;;;;;;;92.60;45.60;;;3.10;99.90;;;;;;4995665;28;20101;-81
2024/02/27 05:27:21;;;;;;;90.88;44.90;;;3.10;99.90;;;;;;4976164;28;20141;-81
2024/02/27 05:29:48;;;;;;;91.72;45.70;;;3.10;99.90;;;;;;4970331;28;20050;-82
2024/02/27 05:32:16;;;;;;;89.82;43.35;;;3.10;99.90;;;;;;4977934;28;20050;-81
2024/02/27 05:34:43;;;;;;;89.32;45.90;;;3.00;99.90;;;;;;4965036;28;20050;-81
2024/02/27 05:37:10;;;;;;;91.18;45.10;;;3.00;99.90;;;;;;4987349;28;20042;-82
2024/02/27 05:39:37;;;;;;;91.22;43.90;;;3.00;99.90;;;;;;4971923;28;20093;-81
2024/02/27 05:42:04;;;;;;;90.65;45.17;;;3.00;99.90;;;;;;4960162;28;20039;-80
2024/02/27 05:44:31;;;;;;;89.10;47.90;;;2.90;99.90;;;;;;4959479;28;20101;-82
2024/02/27 05:46:58;;;;;;;95.95;46.10;;;2.90;99.90;;;;;;4958260;28;20859;-82
2024/02/27 05:49:25;;;;;;;89.97;44.70;;;2.90;99.90;;;;;;4973695;28;20054;-82
2024/02/27 05:51:51;;;;;;;96.43;43.30;;;2.80;99.90;;;;;;4981390;28;20056;-84
2024/02/27 05:54:18;;;;;;;92.32;46.35;;;2.80;99.90;;;;;;4969935;28;20042;-84
2024/02/27 05:56:47;;;;;;;87.00;44.00;;;2.80;99.90;;;;;;4955339;28;20043;-85
2024/02/27 05:59:14;;;;;;;85.00;42.70;;;2.70;99.90;;;;;;4969633;28;20097;-85
2024/02/27 06:01:41;;;;;;;93.20;44.03;;;2.70;99.90;;;;;;4947812;28;20039;-85
2024/02/27 06:04:08;;;;;;;103.22;47.25;;;2.80;99.90;;;;;;4964153;28;20058;-82
2024/02/27 06:06:35;;;;;;;101.45;47.38;;;2.70;99.90;;;;;;4963490;28;20045;-82
2024/02/27 06:09:03;;;;;;;92.65;46.70;;;2.70;99.90;;;;;;4972691;28;20069;-82
2024/02/27 06:11:30;;;;;;;97.40;45.00;;;2.80;99.90;;;;;;4974914;28;20379;-82
2024/02/27 06:13:59;;;;;;;89.55;45.42;;;2.70;99.90;;;;;;4948866;28;20434;-82
2024/02/27 06:16:27;;;;;;;96.03;45.83;;;2.60;99.90;;;;;;4956887;28;20050;-83
2024/02/27 06:18:55;;;;;;;97.07;44.80;;;2.70;99.90;;;;;;4982919;28;20054;-83
2024/02/27 06:24:08;;;;;;;101.55;46.80;;;2.60;99.90;;;;;;4995504;28;20701;-82
2024/02/27 06:26:35;;;;;;;98.95;45.25;;;2.60;99.90;;;;;;4976793;28;20061;-81
2024/02/27 06:29:02;;;;;;;102.10;45.90;;;2.60;99.90;;;;;;4980479;28;20133;-85
2024/02/27 06:31:29;;;;;;;96.50;45.97;;;2.60;99.90;;;;;;4976369;28;20149;-84
2024/02/27 06:33:56;;;;;;;92.70;41.78;;;2.60;99.90;;;;;;4977258;28;20754;-82
2024/02/27 06:36:23;;;;;;;94.50;43.85;;;2.50;99.90;;;;;;4975770;28;20120;-82
2024/02/27 06:38:50;;;;;;;95.10;43.97;;;2.60;99.90;;;;;;4960669;28;20787;-80
2024/02/27 06:41:17;;;;;;;91.07;42.42;;;2.60;99.90;;;;;;4967322;28;20053;-82
2024/02/27 06:43:44;;;;;;;83.40;40.45;;;2.50;99.90;;;;;;4977656;28;20117;-82
2024/02/27 06:46:11;;;;;;;83.47;37.33;;;2.50;99.90;;;;;;4977913;28;20757;-83
2024/02/27 06:48:38;;;;;;;89.32;40.20;;;2.50;99.90;;;;;;4971431;28;20050;-81
2024/02/27 06:51:06;;;;;;;77.75;38.95;;;2.50;99.90;;;;;;4980054;28;20043;-82
2024/02/27 06:53:34;;;;;;;84.88;40.38;;;2.40;99.90;;;;;;4976963;28;20141;-80
2024/02/27 06:56:01;;;;;;;86.93;42.97;;;2.40;99.90;;;;;;4972358;28;20043;-82
2024/02/27 06:58:28;;;;;;;92.22;42.78;;;2.40;99.90;;;;;;4941627;28;20043;-81
2024/02/27 07:00:55;;;;;;;86.28;40.58;;;2.40;99.90;;;;;;4943030;28;20070;-81
2024/02/27 07:03:23;;;;;;;87.45;40.08;;;2.60;99.90;;;;;;4963895;28;20149;-81
2024/02/27 07:05:50;;;;;;;84.57;40.92;;;2.50;99.90;;;;;;4938028;28;20050;-82
2024/02/27 07:08:20;;;;;;;91.20;42.13;;;2.50;99.90;;;;;;4938520;28;20054;-83
2024/02/27 07:10:47;;;;;;;84.60;41.58;;;2.60;99.90;;;;;;4944012;28;20059;-81
2024/02/27 07:13:15;;;;;;;93.03;44.30;;;2.50;99.90;;;;;;4964242;28;20055;-80
2024/02/27 07:15:42;;;;;;;80.88;39.97;;;2.60;99.90;;;;;;4962133;28;20133;-81
2024/02/27 07:18:11;;;;;;;82.70;42.50;;;2.70;99.90;;;;;;4973942;28;20864;-81
2024/02/27 07:20:38;;;;;;;83.80;40.85;;;2.60;99.90;;;;;;4971802;28;20053;-82
2024/02/27 07:23:05;;;;;;;86.70;41.53;;;2.70;99.90;;;;;;4976951;28;20307;-81
2024/02/27 07:25:32;;;;;;;85.68;39.97;;;2.70;99.90;;;;;;4970905;28;20072;-81
2024/02/27 07:27:59;;;;;;;81.78;39.58;;;2.80;99.90;;;;;;4974114;28;20042;-80
2024/02/27 07:30:26;;;;;;;81.70;40.05;;;2.80;99.90;;;;;;4976667;28;20074;-80
2024/02/27 07:32:54;;;;;;;80.22;40.53;;;2.90;99.90;;;;;;4975218;28;20050;-82
2024/02/27 07:35:21;;;;;;;75.35;38.30;;;2.90;99.90;;;;;;4984003;28;20133;-82
2024/02/27 07:37:48;;;;;;;76.63;39.10;;;2.90;99.90;;;;;;4983033;28;20046;-82
2024/02/27 07:40:15;;;;;;;73.43;37.50;;;2.90;99.90;;;;;;4954903;28;20043;-83
2024/02/27 07:42:42;;;;;;;75.63;38.47;;;2.90;99.90;;;;;;4952747;28;20046;-84
2024/02/27 07:45:09;;;;;;;68.82;37.33;;;3.00;99.90;;;;;;4973909;28;20491;-84
2024/02/27 07:47:36;;;;;;;69.18;36.72;;;3.00;99.90;;;;;;4972275;28;20059;-81
2024/02/27 07:50:04;;;;;;;66.45;35.80;;;3.10;99.90;;;;;;4960563;28;20031;-81
2024/02/27 07:52:30;;;;;;;64.75;36.53;;;3.10;99.90;;;;;;4976736;28;20479;-80
2024/02/27 07:54:57;;;;;;;69.28;38.55;;;2.90;99.90;;;;;;4992304;28;20038;-80
2024/02/27 07:57:24;;;;;;;65.38;35.92;;;2.90;99.90;;;;;;5003981;28;20058;-82
2024/02/27 07:59:52;;;;;;;66.30;35.42;;;3.00;99.90;;;;;;4967505;28;20138;-80
2024/02/27 08:02:19;;;;;;;67.15;33.85;;;3.00;99.90;;;;;;4970867;28;20632;-81
2024/02/27 08:04:46;;;;;;;62.65;35.95;;;2.90;99.90;;;;;;4978041;28;21827;-81
2024/02/27 08:07:13;;;;;;;64.65;35.00;;;3.00;99.90;;;;;;5001343;28;20046;-82
2024/02/27 08:09:39;;;;;;;64.40;35.47;;;3.10;99.90;;;;;;4961106;28;20646;-80
2024/02/27 08:12:07;;;;;;;58.47;34.22;;;3.10;99.90;;;;;;4982278;28;20066;-80
2024/02/27 08:14:33;;;;;;;55.40;33.08;;;3.10;99.90;;;;;;4981873;28;20108;-83
2024/02/27 08:17:02;;;;;;;43.83;26.70;;;3.10;99.90;;;;;;4976384;28;20598;-80
2024/02/27 08:19:29;;;;;;;62.20;33.03;;;3.10;99.90;;;;;;4958509;28;20050;-81
2024/02/27 08:22:03;;;;;;;49.05;29.45;;;3.10;99.90;;;;;;4952297;28;20049;-82
2024/02/27 08:24:31;;;;;;;59.23;32.80;;;3.10;99.90;;;;;;4947596;28;20130;-81
2024/02/27 08:26:58;;;;;;;57.90;30.38;;;3.00;99.90;;;;;;4959433;28;21023;-82
2024/02/27 08:29:32;;;;;;;50.17;29.80;;;3.00;99.90;;;;;;4974144;28;20114;-82
2024/02/27 08:31:59;;;;;;;57.08;34.47;;;3.00;99.90;;;;;;4985088;28;20202;-80
2024/02/27 08:34:26;;;;;;;56.80;33.47;;;3.30;99.90;;;;;;4958461;28;20698;-81
2024/02/27 08:36:54;;;;;;;57.05;29.40;;;3.40;99.90;;;;;;4987542;28;20570;-83
2024/02/27 08:39:20;;;;;;;55.85;33.25;;;3.40;99.90;;;;;;4982499;28;20203;-82
2024/02/27 08:41:47;;;;;;;51.28;30.88;;;3.40;99.90;;;;;;4960410;28;20217;-80
2024/02/27 08:44:14;;;;;;;54.13;30.88;;;3.40;99.90;;;;;;4945065;28;20043;-82
2024/02/27 08:46:42;;;;;;;52.50;32.25;;;3.50;99.90;;;;;;4957553;28;20050;-83
2024/02/27 08:49:09;;;;;;;53.17;33.03;;;3.60;99.90;;;;;;4976565;28;20090;-81
2024/02/27 08:51:37;;;;;;;54.88;34.08;;;3.60;99.90;;;;;;4991491;28;20057;-82
2024/02/27 08:54:04;;;;;;;52.10;32.78;;;3.60;99.90;;;;;;4982236;28;20061;-82
2024/02/27 08:56:31;;;;;;;50.60;32.05;;;3.70;99.90;;;;;;4979520;28;20126;-81
2024/02/27 08:58:58;;;;;;;49.80;32.45;;;3.70;99.90;;;;;;4964298;28;20466;-82
2024/02/27 09:01:25;;;;;;;50.85;33.33;;;3.70;99.90;;;;;;4974993;28;20117;-82
2024/02/27 09:03:52;;;;;;;55.80;31.45;;;3.80;99.90;;;;;;4954538;28;20149;-83
2024/02/27 09:06:19;;;;;;;51.40;31.75;;;3.70;99.90;;;;;;4979492;28;20042;-82
2024/02/27 09:08:46;;;;;;;50.80;33.55;;;3.60;99.90;;;;;;4972345;28;20062;-82
2024/02/27 09:11:13;;;;;;;53.97;32.00;;;3.60;99.90;;;;;;4953083;28;20043;-80
2024/02/27 09:13:40;;;;;;;51.13;30.77;;;3.60;99.90;;;;;;4973435;28;20058;-82
2024/02/27 09:16:07;;;;;;;43.53;30.38;;;3.70;99.90;;;;;;4963372;28;20051;-82
2024/02/27 09:18:35;;;;;;;47.67;31.52;;;3.80;99.90;;;;;;4971180;28;20082;-81
2024/02/27 09:21:02;;;;;;;54.10;32.38;;;3.70;99.90;;;;;;4975898;28;20117;-81
2024/02/27 09:23:29;;;;;;;47.45;32.35;;;3.80;99.90;;;;;;4984020;28;20102;-82
2024/02/27 09:25:56;;;;;;;47.45;32.78;;;3.90;99.90;;;;;;4963601;28;20046;-81
2024/02/27 09:28:23;;;;;;;44.58;32.22;;;4.10;99.90;;;;;;4978585;28;20380;-82
2024/02/27 09:30:50;;;;;;;43.92;32.90;;;4.10;99.90;;;;;;4985243;28;20046;-81
2024/02/27 09:33:17;;;;;;;45.17;32.00;;;4.20;99.90;;;;;;4973671;28;20084;-84
2024/02/27 09:35:45;;;;;;;43.05;33.45;;;4.20;99.90;;;;;;4974262;28;20049;-80
2024/02/27 09:38:12;;;;;;;42.30;33.38;;;4.20;99.90;;;;;;4996031;28;20050;-82
2024/02/27 09:40:41;;;;;;;39.30;31.92;;;4.10;99.90;;;;;;4954568;28;20054;-80
2024/02/27 09:43:18;;;;;;;41.30;33.05;;;4.30;99.90;;;;;;4976265;28;20049;-81
2024/02/27 09:45:45;;;;;;;39.80;32.25;;;4.30;99.90;;;;;;4956599;28;20469;-81
2024/02/27 09:48:12;;;;;;;40.53;33.22;;;4.50;99.90;;;;;;4973326;28;20085;-82
2024/02/27 09:50:41;;;;;;;36.83;31.65;;;4.70;99.90;;;;;;4976823;28;20042;-84
2024/02/27 09:53:10;;;;;;;40.10;32.90;;;4.60;99.90;;;;;;4991043;28;20042;-84
2024/02/27 09:55:37;;;;;;;39.10;31.33;;;4.70;99.90;;;;;;4962195;28;20054;-84
2024/02/27 09:58:06;;;;;;;42.40;32.75;;;4.60;99.90;;;;;;4956904;28;20047;-81
2024/02/27 10:00:33;;;;;;;41.15;34.33;;;4.70;99.90;;;;;;4952940;28;20108;-81
2024/02/27 10:03:02;;;;;;;38.60;34.53;;;5.00;99.90;;;;;;4958481;28;20046;-81
2024/02/27 10:05:30;;;;;;;37.50;32.65;;;4.90;99.90;;;;;;4961497;28;20045;-81
2024/02/27 10:08:02;;;;;;;37.97;32.60;;;4.70;99.90;;;;;;4968070;28;20050;-81
2024/02/27 10:10:29;;;;;;;38.42;32.97;;;4.70;99.90;;;;;;4969786;28;20854;-81
2024/02/27 10:12:56;;;;;;;38.85;32.88;;;4.70;99.90;;;;;;4944911;28;20047;-79
2024/02/27 10:15:23;;;;;;;37.38;33.42;;;4.70;99.90;;;;;;4959523;28;20049;-81
2024/02/27 10:17:51;;;;;;;38.35;33.95;;;4.70;99.90;;;;;;4948888;28;20625;-80
2024/02/27 10:20:28;;;;;;;37.17;33.53;;;5.00;99.90;;;;;;4960955;28;20120;-78
2024/02/27 10:22:57;;;;;;;40.88;35.45;;;4.80;99.90;;;;;;4927474;28;21245;-81
2024/02/27 10:25:27;;;;;;;41.13;36.55;;;4.90;99.90;;;;;;4940318;28;20058;-81
2024/02/27 10:27:59;;;;;;;38.10;34.28;;;5.20;99.90;;;;;;4937417;28;21363;-81
2024/02/27 10:30:28;;;;;;;37.80;33.83;;;4.90;99.90;;;;;;4952904;28;20050;-79
2024/02/27 10:32:54;;;;;;;39.00;35.20;;;4.90;99.90;;;;;;4951620;28;21885;-79
2024/02/27 10:35:24;;;;;;;36.58;32.80;;;4.90;99.90;;;;;;4952788;28;20122;-80
2024/02/27 10:37:51;;;;;;;38.90;34.88;;;5.00;99.90;;;;;;4950208;28;20594;-80
2024/02/27 10:40:19;;;;;;;39.22;35.20;;;5.30;99.90;;;;;;4949859;28;20054;-82
2024/02/27 10:42:47;;;;;;;41.72;37.90;;;5.90;99.90;;;;;;4970765;28;20062;-80
2024/02/27 10:45:15;;;;;;;37.80;34.15;;;5.70;99.90;;;;;;4939134;28;20494;-79
2024/02/27 10:47:43;;;;;;;41.90;37.72;;;5.60;99.90;;;;;;4930451;28;20077;-80
2024/02/27 10:50:14;;;;;;;36.63;33.13;;;5.30;99.90;;;;;;4935179;28;20111;-81
2024/02/27 10:52:43;;;;;;;38.35;34.67;;;5.50;99.90;;;;;;4960895;28;20047;-81
2024/02/27 10:55:12;;;;;;;37.80;34.20;;;5.40;99.90;;;;;;4942267;28;20443;-80
2024/02/27 10:57:40;;;;;;;37.20;33.33;;;5.70;99.90;;;;;;4955114;28;20042;-81
2024/02/27 11:00:08;;;;;;;38.65;34.85;;;5.60;99.90;;;;;;4954538;28;20039;-80
2024/02/27 11:02:39;;;;;;;38.38;34.63;;;5.60;99.90;;;;;;4977511;28;20137;-79
2024/02/27 11:05:06;;;;;;;35.80;32.38;;;5.60;99.90;;;;;;4990804;28;20050;-80
2024/02/27 11:07:34;;;;;;;37.85;34.08;;;5.60;99.90;;;;;;4977914;28;20110;-80
2024/02/27 11:10:03;;;;;;;37.75;33.85;;;6.00;99.90;;;;;;4953337;28;20051;-83
2024/02/27 11:12:33;;;;;;;37.22;33.67;;;6.10;99.90;;;;;;4987633;28;20102;-80
2024/02/27 11:15:09;;;;;;;36.35;33.05;;;6.50;99.90;;;;;;4955890;28;20054;-82
2024/02/27 11:17:40;;;;;;;39.90;36.30;;;6.60;99.90;;;;;;4955900;28;20059;-82
2024/02/27 11:20:07;;;;;;;37.85;34.08;;;6.60;99.90;;;;;;4956944;28;20046;-82
2024/02/27 11:22:36;;;;;;;39.13;35.42;;;6.70;99.90;;;;;;4975978;28;20644;-82
2024/02/27 11:25:04;;;;;;;37.97;34.53;;;6.70;99.90;;;;;;4957005;28;20069;-80
2024/02/27 11:27:32;;;;;;;38.30;34.92;;;6.50;99.90;;;;;;4985786;28;20452;-82
2024/02/27 11:30:01;;;;;;;37.22;33.92;;;6.60;99.90;;;;;;4973546;28;20637;-83
2024/02/27 11:32:32;;;;;;;36.45;33.13;;;6.40;99.90;;;;;;4972982;28;20054;-82
2024/02/27 11:35:02;;;;;;;37.33;33.78;;;6.50;99.90;;;;;;4983171;28;20146;-80
2024/02/27 11:37:29;;;;;;;38.25;34.95;;;6.50;99.90;;;;;;4987334;28;20166;-82
2024/02/27 11:39:57;;;;;;;39.22;35.47;;;6.80;99.90;;;;;;4967112;28;20057;-80
2024/02/27 11:42:26;;;;;;;38.00;34.42;;;6.70;99.90;;;;;;4961370;28;20047;-82
2024/02/27 11:45:23;;;;;;;39.17;35.50;;;6.50;99.90;;;;;;4956135;28;20114;-82
2024/02/27 11:47:51;;;;;;;40.97;37.42;;;6.40;99.90;;;;;;4969832;28;20062;-81
2024/02/27 11:50:37;;;;;;;40.58;37.15;;;6.60;99.90;;;;;;4971897;28;20380;-80
2024/02/27 11:53:20;;;;;;;42.22;38.47;;;6.70;99.90;;;;;;4975167;28;20126;-80
2024/02/27 11:55:53;;;;;;;39.78;36.17;;;6.60;99.90;;;;;;4969658;28;20050;-78
2024/02/27 11:58:21;;;;;;;42.50;38.75;;;6.60;99.90;;;;;;4971760;28;20061;-80
2024/02/27 12:00:50;;;;;;;40.13;36.60;;;6.80;99.90;;;;;;4981756;28;20038;-82
2024/02/27 12:03:17;;;;;;;42.40;38.78;;;7.00;99.90;;;;;;4981678;28;20120;-81
2024/02/27 12:05:49;;;;;;;42.20;38.70;;;7.10;99.90;;;;;;4969779;28;20235;-81
2024/02/27 12:08:17;;;;;;;42.10;38.47;;;7.10;99.90;;;;;;4970902;28;20228;-82
2024/02/27 12:10:44;;;;;;;40.15;36.95;;;7.40;99.90;;;;;;4965639;28;20054;-80
2024/02/27 12:13:12;;;;;;;43.25;39.50;;;7.20;99.90;;;;;;4952376;28;20058;-81
2024/02/27 12:15:39;;;;;;;41.67;38.20;;;7.10;99.90;;;;;;4951233;28;20062;-80
2024/02/27 12:18:06;;;;;;;42.97;39.22;;;7.30;99.90;;;;;;4979640;28;20862;-79
2024/02/27 12:20:33;;;;;;;40.10;37.10;;;7.10;99.90;;;;;;4983393;28;20121;-80
2024/02/27 12:23:00;;;;;;;44.10;40.55;;;7.20;99.90;;;;;;4968038;28;20034;-82
2024/02/27 12:25:38;;;;;;;41.85;38.35;;;7.60;99.90;;;;;;4969365;28;20054;-80
2024/02/27 12:28:05;;;;;;;44.40;40.63;;;7.10;99.90;;;;;;4956293;28;20097;-80
2024/02/27 12:30:32;;;;;;;40.60;37.15;;;6.90;99.90;;;;;;4973154;28;20062;-80
2024/02/27 12:32:59;;;;;;;41.80;38.33;;;7.00;99.90;;;;;;4967909;28;20035;-81
2024/02/27 12:35:26;;;;;;;42.25;38.95;;;7.10;99.90;;;;;;4971174;28;20054;-80
2024/02/27 12:37:53;;;;;;;42.83;39.42;;;7.00;99.90;;;;;;4950084;28;20064;-81
2024/02/27 12:40:20;;;;;;;41.95;38.45;;;7.30;99.90;;;;;;4973893;28;20050;-81